sensor_id;sensor_type;location;lat;lon;timestamp;P1;durP1;ratioP1;P2;durP2;ratioP2
13807;SDS011;40769;51.512;5.494;2022-11-21T00:01:52;5.13;;;3.13;;
13807;SDS011;40769;51.512;5.494;2022-11-21T00:04:17;4.68;;;3.15;;
13807;SDS011;40769;51.512;5.494;2022-11-21T00:06:43;3.97;;;2.47;;
13807;SDS011;40769;51.512;5.494;2022-11-21T00:09:08;5.15;;;2.50;;
13807;SDS011;40769;51.512;5.494;2022-11-21T00:11:34;2.80;;;2.47;;
13807;SDS011;40769;51.512;5.494;2022-11-21T00:14:00;4.15;;;3.00;;
13807;SDS011;40769;51.512;5.494;2022-11-21T00:16:25;3.25;;;2.78;;
13807;SDS011;40769;51.512;5.494;2022-11-21T00:18:51;6.07;;;3.10;;
13807;SDS011;40769;51.512;5.494;2022-11-21T00:21:17;4.88;;;3.30;;
13807;SDS011;40769;51.512;5.494;2022-11-21T00:23:44;4.15;;;2.50;;
13807;SDS011;40769;51.512;5.494;2022-11-21T00:26:11;5.55;;;3.03;;
13807;SDS011;40769;51.512;5.494;2022-11-21T00:28:39;5.72;;;2.78;;
13807;SDS011;40769;51.512;5.494;2022-11-21T00:31:05;3.97;;;3.00;;
13807;SDS011;40769;51.512;5.494;2022-11-21T00:33:33;4.80;;;2.70;;
13807;SDS011;40769;51.512;5.494;2022-11-21T00:36:04;5.20;;;2.97;;
13807;SDS011;40769;51.512;5.494;2022-11-21T00:38:31;3.90;;;2.50;;
13807;SDS011;40769;51.512;5.494;2022-11-21T00:40:57;6.82;;;3.45;;
13807;SDS011;40769;51.512;5.494;2022-11-21T00:43:22;7.40;;;3.70;;
13807;SDS011;40769;51.512;5.494;2022-11-21T00:45:48;7.25;;;3.22;;
13807;SDS011;40769;51.512;5.494;2022-11-21T00:48:13;5.75;;;2.38;;
13807;SDS011;40769;51.512;5.494;2022-11-21T00:50:39;5.18;;;3.35;;
13807;SDS011;40769;51.512;5.494;2022-11-21T00:53:04;6.53;;;3.40;;
13807;SDS011;40769;51.512;5.494;2022-11-21T00:55:30;4.03;;;2.58;;
13807;SDS011;40769;51.512;5.494;2022-11-21T00:57:56;7.25;;;3.38;;
13807;SDS011;40769;51.512;5.494;2022-11-21T01:00:21;8.23;;;3.47;;
13807;SDS011;40769;51.512;5.494;2022-11-21T01:02:47;4.70;;;2.95;;
13807;SDS011;40769;51.512;5.494;2022-11-21T01:05:12;4.00;;;2.85;;
13807;SDS011;40769;51.512;5.494;2022-11-21T01:07:38;4.43;;;2.75;;
13807;SDS011;40769;51.512;5.494;2022-11-21T01:10:04;5.22;;;2.67;;
13807;SDS011;40769;51.512;5.494;2022-11-21T01:12:30;8.65;;;2.88;;
13807;SDS011;40769;51.512;5.494;2022-11-21T01:14:56;5.15;;;2.60;;
13807;SDS011;40769;51.512;5.494;2022-11-21T01:17:21;4.05;;;2.28;;
13807;SDS011;40769;51.512;5.494;2022-11-21T01:19:47;6.65;;;3.00;;
13807;SDS011;40769;51.512;5.494;2022-11-21T01:22:12;5.57;;;2.60;;
13807;SDS011;40769;51.512;5.494;2022-11-21T01:24:38;5.53;;;2.78;;
13807;SDS011;40769;51.512;5.494;2022-11-21T01:27:03;3.13;;;2.55;;
13807;SDS011;40769;51.512;5.494;2022-11-21T01:29:29;3.75;;;2.30;;
13807;SDS011;40769;51.512;5.494;2022-11-21T01:31:55;4.05;;;2.47;;
13807;SDS011;40769;51.512;5.494;2022-11-21T01:34:20;5.05;;;2.80;;
13807;SDS011;40769;51.512;5.494;2022-11-21T01:36:46;6.55;;;3.00;;
13807;SDS011;40769;51.512;5.494;2022-11-21T01:39:11;3.28;;;2.72;;
13807;SDS011;40769;51.512;5.494;2022-11-21T01:41:41;3.63;;;2.55;;
13807;SDS011;40769;51.512;5.494;2022-11-21T01:44:18;4.00;;;2.90;;
13807;SDS011;40769;51.512;5.494;2022-11-21T01:46:44;5.97;;;4.53;;
13807;SDS011;40769;51.512;5.494;2022-11-21T01:49:17;11.68;;;8.75;;
13807;SDS011;40769;51.512;5.494;2022-11-21T01:57:25;8.48;;;7.05;;
13807;SDS011;40769;51.512;5.494;2022-11-21T02:00:14;13.45;;;10.93;;
13807;SDS011;40769;51.512;5.494;2022-11-21T02:02:47;11.20;;;8.88;;
13807;SDS011;40769;51.512;5.494;2022-11-21T02:05:18;10.82;;;9.57;;
13807;SDS011;40769;51.512;5.494;2022-11-21T02:07:47;10.88;;;8.43;;
13807;SDS011;40769;51.512;5.494;2022-11-21T02:10:14;12.63;;;9.90;;
13807;SDS011;40769;51.512;5.494;2022-11-21T02:15:27;9.57;;;8.60;;
13807;SDS011;40769;51.512;5.494;2022-11-21T02:17:53;11.45;;;10.25;;
13807;SDS011;40769;51.512;5.494;2022-11-21T02:20:20;23.90;;;15.95;;
13807;SDS011;40769;51.512;5.494;2022-11-21T02:25:40;10.43;;;9.23;;
13807;SDS011;40769;51.512;5.494;2022-11-21T02:28:08;10.63;;;9.45;;
13807;SDS011;40769;51.512;5.494;2022-11-21T02:30:38;12.02;;;10.50;;
13807;SDS011;40769;51.512;5.494;2022-11-21T02:33:06;11.25;;;9.98;;
13807;SDS011;40769;51.512;5.494;2022-11-21T02:35:32;14.05;;;11.20;;
13807;SDS011;40769;51.512;5.494;2022-11-21T02:37:59;11.95;;;10.75;;
13807;SDS011;40769;51.512;5.494;2022-11-21T02:43:30;11.25;;;9.45;;
13807;SDS011;40769;51.512;5.494;2022-11-21T02:46:17;10.68;;;9.57;;
13807;SDS011;40769;51.512;5.494;2022-11-21T02:48:43;10.25;;;9.18;;
13807;SDS011;40769;51.512;5.494;2022-11-21T02:51:09;10.93;;;9.80;;
13807;SDS011;40769;51.512;5.494;2022-11-21T02:53:34;10.95;;;9.77;;
13807;SDS011;40769;51.512;5.494;2022-11-21T02:56:00;11.38;;;10.02;;
13807;SDS011;40769;51.512;5.494;2022-11-21T02:58:26;16.00;;;11.00;;
13807;SDS011;40769;51.512;5.494;2022-11-21T03:00:51;13.40;;;12.00;;
13807;SDS011;40769;51.512;5.494;2022-11-21T03:03:19;16.25;;;12.57;;
13807;SDS011;40769;51.512;5.494;2022-11-21T03:05:44;22.38;;;14.85;;
13807;SDS011;40769;51.512;5.494;2022-11-21T03:08:10;22.48;;;14.55;;
13807;SDS011;40769;51.512;5.494;2022-11-21T03:10:36;30.40;;;15.00;;
13807;SDS011;40769;51.512;5.494;2022-11-21T03:13:02;13.75;;;11.77;;
13807;SDS011;40769;51.512;5.494;2022-11-21T03:15:28;106.40;;;29.23;;
13807;SDS011;40769;51.512;5.494;2022-11-21T03:17:56;13.77;;;11.60;;
13807;SDS011;40769;51.512;5.494;2022-11-21T03:20:22;12.73;;;11.43;;
13807;SDS011;40769;51.512;5.494;2022-11-21T03:22:47;11.88;;;10.40;;
13807;SDS011;40769;51.512;5.494;2022-11-21T03:25:14;12.30;;;10.85;;
13807;SDS011;40769;51.512;5.494;2022-11-21T03:27:39;12.00;;;10.80;;
13807;SDS011;40769;51.512;5.494;2022-11-21T03:30:05;16.58;;;11.50;;
13807;SDS011;40769;51.512;5.494;2022-11-21T03:32:31;11.05;;;9.90;;
13807;SDS011;40769;51.512;5.494;2022-11-21T03:34:57;11.00;;;9.90;;
13807;SDS011;40769;51.512;5.494;2022-11-21T03:37:23;13.10;;;11.70;;
13807;SDS011;40769;51.512;5.494;2022-11-21T03:39:48;11.32;;;9.65;;
13807;SDS011;40769;51.512;5.494;2022-11-21T03:42:14;14.63;;;12.73;;
13807;SDS011;40769;51.512;5.494;2022-11-21T03:44:39;13.43;;;11.40;;
13807;SDS011;40769;51.512;5.494;2022-11-21T03:47:05;12.75;;;11.07;;
13807;SDS011;40769;51.512;5.494;2022-11-21T03:49:30;18.83;;;12.80;;
13807;SDS011;40769;51.512;5.494;2022-11-21T03:51:56;20.92;;;13.93;;
13807;SDS011;40769;51.512;5.494;2022-11-21T03:54:22;17.65;;;11.40;;
13807;SDS011;40769;51.512;5.494;2022-11-21T03:56:47;13.40;;;10.20;;
13807;SDS011;40769;51.512;5.494;2022-11-21T03:59:13;17.95;;;10.70;;
13807;SDS011;40769;51.512;5.494;2022-11-21T04:01:39;13.48;;;10.25;;
13807;SDS011;40769;51.512;5.494;2022-11-21T04:04:04;17.30;;;10.00;;
13807;SDS011;40769;51.512;5.494;2022-11-21T04:06:30;15.65;;;9.65;;
13807;SDS011;40769;51.512;5.494;2022-11-21T04:08:55;19.92;;;11.48;;
13807;SDS011;40769;51.512;5.494;2022-11-21T04:11:21;16.10;;;10.20;;
13807;SDS011;40769;51.512;5.494;2022-11-21T04:13:48;12.02;;;9.27;;
13807;SDS011;40769;51.512;5.494;2022-11-21T04:16:15;22.05;;;11.13;;
13807;SDS011;40769;51.512;5.494;2022-11-21T04:18:41;26.83;;;10.70;;
13807;SDS011;40769;51.512;5.494;2022-11-21T04:21:06;19.98;;;10.57;;
13807;SDS011;40769;51.512;5.494;2022-11-21T04:23:33;13.10;;;9.98;;
13807;SDS011;40769;51.512;5.494;2022-11-21T04:25:59;24.17;;;12.80;;
13807;SDS011;40769;51.512;5.494;2022-11-21T04:28:25;13.90;;;10.13;;
13807;SDS011;40769;51.512;5.494;2022-11-21T04:30:50;19.50;;;10.63;;
13807;SDS011;40769;51.512;5.494;2022-11-21T04:33:16;15.43;;;9.85;;
13807;SDS011;40769;51.512;5.494;2022-11-21T04:35:43;16.02;;;10.55;;
13807;SDS011;40769;51.512;5.494;2022-11-21T04:38:09;19.35;;;10.90;;
13807;SDS011;40769;51.512;5.494;2022-11-21T04:40:36;10.70;;;9.45;;
13807;SDS011;40769;51.512;5.494;2022-11-21T04:43:02;12.13;;;9.75;;
13807;SDS011;40769;51.512;5.494;2022-11-21T04:45:28;12.77;;;10.00;;
13807;SDS011;40769;51.512;5.494;2022-11-21T04:47:53;10.55;;;9.23;;
13807;SDS011;40769;51.512;5.494;2022-11-21T04:50:20;11.15;;;10.05;;
13807;SDS011;40769;51.512;5.494;2022-11-21T04:52:49;10.85;;;9.40;;
13807;SDS011;40769;51.512;5.494;2022-11-21T04:55:19;10.70;;;9.63;;
13807;SDS011;40769;51.512;5.494;2022-11-21T04:57:46;14.57;;;11.18;;
13807;SDS011;40769;51.512;5.494;2022-11-21T05:00:15;14.45;;;10.25;;
13807;SDS011;40769;51.512;5.494;2022-11-21T05:02:41;15.38;;;10.68;;
13807;SDS011;40769;51.512;5.494;2022-11-21T05:05:07;11.23;;;10.07;;
13807;SDS011;40769;51.512;5.494;2022-11-21T05:07:33;15.75;;;10.07;;
13807;SDS011;40769;51.512;5.494;2022-11-21T05:09:59;11.40;;;8.90;;
13807;SDS011;40769;51.512;5.494;2022-11-21T05:12:24;15.55;;;8.93;;
13807;SDS011;40769;51.512;5.494;2022-11-21T05:15:09;16.50;;;10.25;;
13807;SDS011;40769;51.512;5.494;2022-11-21T05:17:34;27.15;;;9.38;;
13807;SDS011;40769;51.512;5.494;2022-11-21T05:20:00;25.58;;;9.65;;
13807;SDS011;40769;51.512;5.494;2022-11-21T05:22:26;18.55;;;9.52;;
13807;SDS011;40769;51.512;5.494;2022-11-21T05:24:51;28.55;;;11.30;;
13807;SDS011;40769;51.512;5.494;2022-11-21T05:27:17;22.70;;;9.57;;
13807;SDS011;40769;51.512;5.494;2022-11-21T05:29:42;12.68;;;8.55;;
13807;SDS011;40769;51.512;5.494;2022-11-21T05:32:08;23.45;;;9.50;;
13807;SDS011;40769;51.512;5.494;2022-11-21T05:34:34;26.42;;;10.13;;
13807;SDS011;40769;51.512;5.494;2022-11-21T05:36:59;25.13;;;10.07;;
13807;SDS011;40769;51.512;5.494;2022-11-21T05:39:25;26.02;;;8.90;;
13807;SDS011;40769;51.512;5.494;2022-11-21T05:41:51;19.05;;;8.57;;
13807;SDS011;40769;51.512;5.494;2022-11-21T05:44:17;40.22;;;10.15;;
13807;SDS011;40769;51.512;5.494;2022-11-21T05:46:43;30.27;;;8.95;;
13807;SDS011;40769;51.512;5.494;2022-11-21T05:49:09;20.77;;;8.32;;
13807;SDS011;40769;51.512;5.494;2022-11-21T05:51:34;23.98;;;8.30;;
13807;SDS011;40769;51.512;5.494;2022-11-21T05:54:00;24.65;;;9.02;;
13807;SDS011;40769;51.512;5.494;2022-11-21T05:56:26;14.38;;;8.18;;
13807;SDS011;40769;51.512;5.494;2022-11-21T05:58:54;17.80;;;8.50;;
13807;SDS011;40769;51.512;5.494;2022-11-21T06:01:21;24.67;;;8.77;;
13807;SDS011;40769;51.512;5.494;2022-11-21T06:04:06;19.23;;;8.90;;
13807;SDS011;40769;51.512;5.494;2022-11-21T06:06:33;16.33;;;8.40;;
13807;SDS011;40769;51.512;5.494;2022-11-21T06:08:58;20.15;;;9.43;;
13807;SDS011;40769;51.512;5.494;2022-11-21T06:11:24;19.83;;;8.63;;
13807;SDS011;40769;51.512;5.494;2022-11-21T06:13:51;12.15;;;8.25;;
13807;SDS011;40769;51.512;5.494;2022-11-21T06:16:17;19.70;;;9.20;;
13807;SDS011;40769;51.512;5.494;2022-11-21T06:18:45;15.57;;;8.82;;
13807;SDS011;40769;51.512;5.494;2022-11-21T06:23:44;9.77;;;7.78;;
13807;SDS011;40769;51.512;5.494;2022-11-21T06:26:11;11.73;;;7.15;;
13807;SDS011;40769;51.512;5.494;2022-11-21T06:28:41;7.97;;;7.15;;
13807;SDS011;40769;51.512;5.494;2022-11-21T06:31:08;8.75;;;7.53;;
13807;SDS011;40769;51.512;5.494;2022-11-21T06:33:35;8.48;;;7.63;;
13807;SDS011;40769;51.512;5.494;2022-11-21T06:36:02;9.70;;;8.70;;
13807;SDS011;40769;51.512;5.494;2022-11-21T06:38:29;9.38;;;7.55;;
13807;SDS011;40769;51.512;5.494;2022-11-21T06:40:54;10.10;;;8.90;;
13807;SDS011;40769;51.512;5.494;2022-11-21T06:43:20;9.35;;;8.45;;
13807;SDS011;40769;51.512;5.494;2022-11-21T06:45:45;8.93;;;8.13;;
13807;SDS011;40769;51.512;5.494;2022-11-21T06:48:11;13.50;;;12.20;;
13807;SDS011;40769;51.512;5.494;2022-11-21T06:50:37;14.25;;;12.85;;
13807;SDS011;40769;51.512;5.494;2022-11-21T06:53:03;15.07;;;13.68;;
13807;SDS011;40769;51.512;5.494;2022-11-21T06:55:29;14.07;;;12.77;;
13807;SDS011;40769;51.512;5.494;2022-11-21T06:57:56;14.57;;;13.23;;
13807;SDS011;40769;51.512;5.494;2022-11-21T07:00:23;15.10;;;13.57;;
13807;SDS011;40769;51.512;5.494;2022-11-21T07:02:49;13.48;;;12.18;;
13807;SDS011;40769;51.512;5.494;2022-11-21T07:05:15;12.32;;;11.20;;
13807;SDS011;40769;51.512;5.494;2022-11-21T07:07:40;11.13;;;9.68;;
13807;SDS011;40769;51.512;5.494;2022-11-21T07:10:06;10.50;;;9.43;;
13807;SDS011;40769;51.512;5.494;2022-11-21T07:12:33;9.65;;;8.75;;
13807;SDS011;40769;51.512;5.494;2022-11-21T07:15:31;10.48;;;9.48;;
13807;SDS011;40769;51.512;5.494;2022-11-21T07:17:57;13.10;;;11.82;;
13807;SDS011;40769;51.512;5.494;2022-11-21T07:20:23;11.30;;;10.20;;
13807;SDS011;40769;51.512;5.494;2022-11-21T07:22:52;12.35;;;11.20;;
13807;SDS011;40769;51.512;5.494;2022-11-21T07:25:18;12.52;;;11.25;;
13807;SDS011;40769;51.512;5.494;2022-11-21T07:27:44;11.73;;;10.63;;
13807;SDS011;40769;51.512;5.494;2022-11-21T07:30:09;11.85;;;10.85;;
13807;SDS011;40769;51.512;5.494;2022-11-21T07:32:35;10.45;;;9.45;;
13807;SDS011;40769;51.512;5.494;2022-11-21T07:35:01;11.32;;;10.32;;
13807;SDS011;40769;51.512;5.494;2022-11-21T07:37:29;11.23;;;10.13;;
13807;SDS011;40769;51.512;5.494;2022-11-21T07:39:54;11.65;;;10.55;;
13807;SDS011;40769;51.512;5.494;2022-11-21T07:42:20;12.45;;;11.25;;
13807;SDS011;40769;51.512;5.494;2022-11-21T07:44:45;11.90;;;10.80;;
13807;SDS011;40769;51.512;5.494;2022-11-21T07:47:11;12.68;;;11.48;;
13807;SDS011;40769;51.512;5.494;2022-11-21T07:49:37;10.63;;;9.63;;
13807;SDS011;40769;51.512;5.494;2022-11-21T07:52:02;10.27;;;9.35;;
13807;SDS011;40769;51.512;5.494;2022-11-21T07:54:28;14.88;;;11.95;;
13807;SDS011;40769;51.512;5.494;2022-11-21T07:56:53;8.80;;;8.07;;
13807;SDS011;40769;51.512;5.494;2022-11-21T07:59:19;9.00;;;8.20;;
13807;SDS011;40769;51.512;5.494;2022-11-21T08:01:45;9.95;;;9.13;;
13807;SDS011;40769;51.512;5.494;2022-11-21T08:04:10;9.43;;;8.43;;
13807;SDS011;40769;51.512;5.494;2022-11-21T08:06:36;8.43;;;7.63;;
13807;SDS011;40769;51.512;5.494;2022-11-21T08:09:02;9.52;;;8.32;;
13807;SDS011;40769;51.512;5.494;2022-11-21T08:11:27;7.05;;;6.35;;
13807;SDS011;40769;51.512;5.494;2022-11-21T08:13:54;7.80;;;7.00;;
13807;SDS011;40769;51.512;5.494;2022-11-21T08:16:22;8.25;;;7.45;;
13807;SDS011;40769;51.512;5.494;2022-11-21T08:18:48;7.20;;;6.50;;
13807;SDS011;40769;51.512;5.494;2022-11-21T08:21:15;6.97;;;6.38;;
13807;SDS011;40769;51.512;5.494;2022-11-21T08:23:40;7.40;;;6.55;;
13807;SDS011;40769;51.512;5.494;2022-11-21T08:26:07;6.63;;;6.03;;
13807;SDS011;40769;51.512;5.494;2022-11-21T08:28:34;7.70;;;7.00;;
13807;SDS011;40769;51.512;5.494;2022-11-21T08:31:02;10.23;;;8.13;;
13807;SDS011;40769;51.512;5.494;2022-11-21T08:33:28;8.63;;;7.82;;
13807;SDS011;40769;51.512;5.494;2022-11-21T08:35:54;10.75;;;9.20;;
13807;SDS011;40769;51.512;5.494;2022-11-21T08:38:21;9.00;;;8.10;;
13807;SDS011;40769;51.512;5.494;2022-11-21T08:40:46;8.02;;;6.90;;
13807;SDS011;40769;51.512;5.494;2022-11-21T08:43:32;6.68;;;5.95;;
13807;SDS011;40769;51.512;5.494;2022-11-21T08:45:57;6.95;;;5.65;;
13807;SDS011;40769;51.512;5.494;2022-11-21T08:48:23;7.40;;;6.65;;
13807;SDS011;40769;51.512;5.494;2022-11-21T08:50:48;7.45;;;6.60;;
13807;SDS011;40769;51.512;5.494;2022-11-21T08:53:14;7.72;;;6.60;;
13807;SDS011;40769;51.512;5.494;2022-11-21T08:55:39;8.40;;;6.57;;
13807;SDS011;40769;51.512;5.494;2022-11-21T08:58:05;7.03;;;5.88;;
13807;SDS011;40769;51.512;5.494;2022-11-21T09:00:30;8.65;;;6.25;;
13807;SDS011;40769;51.512;5.494;2022-11-21T09:02:56;7.18;;;5.35;;
13807;SDS011;40769;51.512;5.494;2022-11-21T09:05:22;7.93;;;6.18;;
13807;SDS011;40769;51.512;5.494;2022-11-21T09:07:47;5.15;;;4.65;;
13807;SDS011;40769;51.512;5.494;2022-11-21T09:10:20;5.03;;;4.53;;
13807;SDS011;40769;51.512;5.494;2022-11-21T09:12:45;7.25;;;5.18;;
13807;SDS011;40769;51.512;5.494;2022-11-21T09:15:11;5.70;;;4.78;;
13807;SDS011;40769;51.512;5.494;2022-11-21T09:17:59;6.93;;;4.57;;
13807;SDS011;40769;51.512;5.494;2022-11-21T09:20:28;6.72;;;5.13;;
13807;SDS011;40769;51.512;5.494;2022-11-21T09:22:54;7.25;;;5.72;;
13807;SDS011;40769;51.512;5.494;2022-11-21T09:25:19;5.20;;;4.63;;
13807;SDS011;40769;51.512;5.494;2022-11-21T09:27:45;11.75;;;5.25;;
13807;SDS011;40769;51.512;5.494;2022-11-21T09:30:11;5.40;;;4.13;;
13807;SDS011;40769;51.512;5.494;2022-11-21T09:32:36;6.30;;;4.70;;
13807;SDS011;40769;51.512;5.494;2022-11-21T09:35:02;5.70;;;4.07;;
13807;SDS011;40769;51.512;5.494;2022-11-21T09:37:28;5.93;;;3.72;;
13807;SDS011;40769;51.512;5.494;2022-11-21T09:39:54;9.40;;;4.32;;
13807;SDS011;40769;51.512;5.494;2022-11-21T09:42:26;6.65;;;4.38;;
13807;SDS011;40769;51.512;5.494;2022-11-21T09:45:08;5.15;;;3.72;;
13807;SDS011;40769;51.512;5.494;2022-11-21T09:47:46;7.90;;;4.20;;
13807;SDS011;40769;51.512;5.494;2022-11-21T09:50:29;3.60;;;3.30;;
13807;SDS011;40769;51.512;5.494;2022-11-21T09:53:04;4.70;;;3.30;;
13807;SDS011;40769;51.512;5.494;2022-11-21T09:57:59;5.95;;;3.85;;
13807;SDS011;40769;51.512;5.494;2022-11-21T10:00:28;7.15;;;4.38;;
13807;SDS011;40769;51.512;5.494;2022-11-21T10:02:54;6.45;;;3.40;;
13807;SDS011;40769;51.512;5.494;2022-11-21T10:05:28;5.22;;;3.42;;
13807;SDS011;40769;51.512;5.494;2022-11-21T10:07:54;5.10;;;3.30;;
13807;SDS011;40769;51.512;5.494;2022-11-21T10:11:04;5.93;;;3.88;;
13807;SDS011;40769;51.512;5.494;2022-11-21T10:16:20;4.72;;;3.65;;
13807;SDS011;40769;51.512;5.494;2022-11-21T10:27:12;4.68;;;3.22;;
13807;SDS011;40769;51.512;5.494;2022-11-21T10:29:46;4.38;;;3.35;;
13807;SDS011;40769;51.512;5.494;2022-11-21T10:32:36;4.05;;;3.55;;
13807;SDS011;40769;51.512;5.494;2022-11-21T10:38:39;4.88;;;2.90;;
13807;SDS011;40769;51.512;5.494;2022-11-21T10:41:02;5.45;;;3.75;;
13807;SDS011;40769;51.512;5.494;2022-11-21T10:46:30;5.70;;;4.22;;
13807;SDS011;40769;51.512;5.494;2022-11-21T10:48:58;4.78;;;4.28;;
13807;SDS011;40769;51.512;5.494;2022-11-21T10:54:10;5.18;;;4.05;;
13807;SDS011;40769;51.512;5.494;2022-11-21T10:56:57;6.18;;;4.32;;
13807;SDS011;40769;51.512;5.494;2022-11-21T10:59:30;5.93;;;4.20;;
13807;SDS011;40769;51.512;5.494;2022-11-21T11:01:57;4.90;;;3.67;;
13807;SDS011;40769;51.512;5.494;2022-11-21T11:04:45;5.32;;;4.35;;
13807;SDS011;40769;51.512;5.494;2022-11-21T11:07:25;5.82;;;3.90;;
13807;SDS011;40769;51.512;5.494;2022-11-21T11:12:46;4.47;;;2.95;;
13807;SDS011;40769;51.512;5.494;2022-11-21T11:15:32;3.45;;;2.33;;
13807;SDS011;40769;51.512;5.494;2022-11-21T11:17:59;4.80;;;2.72;;
13807;SDS011;40769;51.512;5.494;2022-11-21T11:22:55;2.28;;;2.08;;
13807;SDS011;40769;51.512;5.494;2022-11-21T11:25:20;3.42;;;2.28;;
13807;SDS011;40769;51.512;5.494;2022-11-21T11:27:47;3.55;;;2.42;;
13807;SDS011;40769;51.512;5.494;2022-11-21T11:30:16;3.92;;;2.55;;
13807;SDS011;40769;51.512;5.494;2022-11-21T11:32:43;3.65;;;2.30;;
13807;SDS011;40769;51.512;5.494;2022-11-21T11:37:41;2.10;;;1.90;;
13807;SDS011;40769;51.512;5.494;2022-11-21T11:40:24;4.32;;;2.50;;
13807;SDS011;40769;51.512;5.494;2022-11-21T11:48:46;3.35;;;1.67;;
13807;SDS011;40769;51.512;5.494;2022-11-21T11:53:58;2.75;;;2.00;;
13807;SDS011;40769;51.512;5.494;2022-11-21T11:56:34;1.70;;;1.40;;
13807;SDS011;40769;51.512;5.494;2022-11-21T12:04:45;2.58;;;1.30;;
13807;SDS011;40769;51.512;5.494;2022-11-21T12:07:37;2.90;;;1.80;;
13807;SDS011;40769;51.512;5.494;2022-11-21T12:10:28;3.50;;;1.70;;
13807;SDS011;40769;51.512;5.494;2022-11-21T12:13:23;3.97;;;1.48;;
13807;SDS011;40769;51.512;5.494;2022-11-21T12:15:51;1.70;;;1.20;;
13807;SDS011;40769;51.512;5.494;2022-11-21T12:18:29;1.48;;;1.05;;
13807;SDS011;40769;51.512;5.494;2022-11-21T12:21:15;2.33;;;1.38;;
13807;SDS011;40769;51.512;5.494;2022-11-21T12:23:49;1.85;;;1.40;;
13807;SDS011;40769;51.512;5.494;2022-11-21T12:45:33;2.75;;;1.50;;
13807;SDS011;40769;51.512;5.494;2022-11-21T12:48:13;3.00;;;1.73;;
13807;SDS011;40769;51.512;5.494;2022-11-21T13:02:47;1.67;;;1.20;;
13807;SDS011;40769;51.512;5.494;2022-11-21T13:05:44;3.13;;;1.42;;
13807;SDS011;40769;51.512;5.494;2022-11-21T13:08:13;1.85;;;1.10;;
13807;SDS011;40769;51.512;5.494;2022-11-21T13:13:51;2.22;;;1.20;;
13807;SDS011;40769;51.512;5.494;2022-11-21T13:16:25;3.40;;;1.38;;
13807;SDS011;40769;51.512;5.494;2022-11-21T13:19:26;2.00;;;1.23;;
13807;SDS011;40769;51.512;5.494;2022-11-21T13:21:52;2.60;;;1.52;;
13807;SDS011;40769;51.512;5.494;2022-11-21T13:27:10;1.48;;;1.33;;
13807;SDS011;40769;51.512;5.494;2022-11-21T14:07:35;2.92;;;1.85;;
13807;SDS011;40769;51.512;5.494;2022-11-21T14:10:04;1.80;;;1.35;;
13807;SDS011;40769;51.512;5.494;2022-11-21T14:12:52;1.80;;;1.10;;
13807;SDS011;40769;51.512;5.494;2022-11-21T14:15:21;2.60;;;1.90;;
13807;SDS011;40769;51.512;5.494;2022-11-21T14:18:22;2.50;;;1.40;;
13807;SDS011;40769;51.512;5.494;2022-11-21T14:20:58;1.42;;;1.10;;
13807;SDS011;40769;51.512;5.494;2022-11-21T14:23:29;2.33;;;1.85;;
13807;SDS011;40769;51.512;5.494;2022-11-21T14:28:44;2.97;;;1.88;;
13807;SDS011;40769;51.512;5.494;2022-11-21T14:31:16;2.28;;;1.70;;
13807;SDS011;40769;51.512;5.494;2022-11-21T14:33:45;1.58;;;1.48;;
13807;SDS011;40769;51.512;5.494;2022-11-21T14:36:26;2.90;;;1.50;;
13807;SDS011;40769;51.512;5.494;2022-11-21T14:38:59;3.30;;;1.60;;
13807;SDS011;40769;51.512;5.494;2022-11-21T14:41:30;2.40;;;1.73;;
13807;SDS011;40769;51.512;5.494;2022-11-21T14:46:25;4.57;;;2.10;;
13807;SDS011;40769;51.512;5.494;2022-11-21T14:51:39;4.03;;;2.42;;
13807;SDS011;40769;51.512;5.494;2022-11-21T14:54:09;3.90;;;3.00;;
13807;SDS011;40769;51.512;5.494;2022-11-21T14:56:38;3.72;;;3.35;;
13807;SDS011;40769;51.512;5.494;2022-11-21T14:59:05;3.13;;;2.55;;
13807;SDS011;40769;51.512;5.494;2022-11-21T15:01:40;3.13;;;2.65;;
13807;SDS011;40769;51.512;5.494;2022-11-21T15:04:06;2.53;;;1.98;;
13807;SDS011;40769;51.512;5.494;2022-11-21T15:06:41;2.65;;;2.10;;
13807;SDS011;40769;51.512;5.494;2022-11-21T15:09:11;5.63;;;2.65;;
13807;SDS011;40769;51.512;5.494;2022-11-21T15:17:14;3.70;;;2.55;;
13807;SDS011;40769;51.512;5.494;2022-11-21T15:19:44;3.15;;;2.25;;
13807;SDS011;40769;51.512;5.494;2022-11-21T15:22:20;2.50;;;1.80;;
13807;SDS011;40769;51.512;5.494;2022-11-21T15:27:40;4.05;;;2.63;;
13807;SDS011;40769;51.512;5.494;2022-11-21T15:46:02;4.85;;;2.45;;
13807;SDS011;40769;51.512;5.494;2022-11-21T15:48:34;2.38;;;1.75;;
13807;SDS011;40769;51.512;5.494;2022-11-21T15:51:00;2.25;;;1.67;;
13807;SDS011;40769;51.512;5.494;2022-11-21T15:53:25;2.53;;;1.88;;
13807;SDS011;40769;51.512;5.494;2022-11-21T15:55:51;3.00;;;2.05;;
13807;SDS011;40769;51.512;5.494;2022-11-21T15:58:16;3.83;;;2.20;;
13807;SDS011;40769;51.512;5.494;2022-11-21T16:00:42;2.08;;;1.48;;
13807;SDS011;40769;51.512;5.494;2022-11-21T16:03:07;2.92;;;1.50;;
13807;SDS011;40769;51.512;5.494;2022-11-21T16:05:53;2.25;;;1.50;;
13807;SDS011;40769;51.512;5.494;2022-11-21T16:08:19;4.00;;;1.70;;
13807;SDS011;40769;51.512;5.494;2022-11-21T16:10:44;4.40;;;1.75;;
13807;SDS011;40769;51.512;5.494;2022-11-21T16:13:10;1.38;;;1.20;;
13807;SDS011;40769;51.512;5.494;2022-11-21T16:15:36;1.92;;;1.30;;
13807;SDS011;40769;51.512;5.494;2022-11-21T16:18:02;3.90;;;1.40;;
13807;SDS011;40769;51.512;5.494;2022-11-21T16:20:28;2.92;;;1.58;;
13807;SDS011;40769;51.512;5.494;2022-11-21T16:22:53;3.05;;;1.52;;
13807;SDS011;40769;51.512;5.494;2022-11-21T16:25:19;1.92;;;1.13;;
13807;SDS011;40769;51.512;5.494;2022-11-21T16:27:45;1.90;;;1.30;;
13807;SDS011;40769;51.512;5.494;2022-11-21T16:30:11;1.73;;;1.30;;
13807;SDS011;40769;51.512;5.494;2022-11-21T16:32:37;1.63;;;1.30;;
13807;SDS011;40769;51.512;5.494;2022-11-21T16:35:03;1.70;;;1.10;;
13807;SDS011;40769;51.512;5.494;2022-11-21T16:37:32;3.42;;;1.77;;
13807;SDS011;40769;51.512;5.494;2022-11-21T16:39:58;3.95;;;2.03;;
13807;SDS011;40769;51.512;5.494;2022-11-21T16:42:24;2.25;;;1.70;;
13807;SDS011;40769;51.512;5.494;2022-11-21T16:44:49;1.83;;;1.30;;
13807;SDS011;40769;51.512;5.494;2022-11-21T16:47:15;3.80;;;1.73;;
13807;SDS011;40769;51.512;5.494;2022-11-21T16:49:40;3.22;;;1.95;;
13807;SDS011;40769;51.512;5.494;2022-11-21T16:52:11;2.83;;;1.63;;
13807;SDS011;40769;51.512;5.494;2022-11-21T16:54:37;4.03;;;1.88;;
13807;SDS011;40769;51.512;5.494;2022-11-21T16:57:03;2.38;;;1.70;;
13807;SDS011;40769;51.512;5.494;2022-11-21T16:59:30;1.42;;;1.20;;
13807;SDS011;40769;51.512;5.494;2022-11-21T17:01:56;1.55;;;1.23;;
13807;SDS011;40769;51.512;5.494;2022-11-21T17:04:22;4.30;;;2.20;;
13807;SDS011;40769;51.512;5.494;2022-11-21T17:06:48;3.28;;;2.03;;
13807;SDS011;40769;51.512;5.494;2022-11-21T17:09:16;3.47;;;1.98;;
13807;SDS011;40769;51.512;5.494;2022-11-21T17:11:42;3.25;;;2.08;;
13807;SDS011;40769;51.512;5.494;2022-11-21T17:14:08;2.13;;;1.60;;
13807;SDS011;40769;51.512;5.494;2022-11-21T17:16:36;4.28;;;1.92;;
13807;SDS011;40769;51.512;5.494;2022-11-21T17:19:03;2.58;;;1.80;;
13807;SDS011;40769;51.512;5.494;2022-11-21T17:21:30;2.10;;;1.90;;
13807;SDS011;40769;51.512;5.494;2022-11-21T17:23:56;3.90;;;1.73;;
13807;SDS011;40769;51.512;5.494;2022-11-21T17:26:23;2.33;;;1.80;;
13807;SDS011;40769;51.512;5.494;2022-11-21T17:28:51;3.70;;;1.90;;
13807;SDS011;40769;51.512;5.494;2022-11-21T17:31:24;2.17;;;1.42;;
13807;SDS011;40769;51.512;5.494;2022-11-21T17:33:50;2.38;;;1.83;;
13807;SDS011;40769;51.512;5.494;2022-11-21T17:36:20;2.08;;;1.95;;
13807;SDS011;40769;51.512;5.494;2022-11-21T17:38:46;2.95;;;2.00;;